PWSweather.com
Personal Weather Stations
Station Observations
SPARKSRC
St. Petersburg, FL 33716

St. Petersburg, FL 33716

Lat: 27.876101, Lon: -82.657194

Elevation: 13

Station Type: Zephyr PWS-1000TD

High Low Average
Temperature 95.5°F35.3°C 62.6°F17.0°C 76.7°F24.8°C
Dew Point 69.3°F20.7°C 51.1°F10.6°C 59.3°F15.2°C
Winds 15.2 mph 24.5 kmh Calm Calm 6.0 mph W9.7 kmh W
Wind Gusts 24.4 mph39.3 kmh 1.6 mph2.6 kmh 12.0 mph19.3 kmh
Humidity 75% 35% 57%
Pressure 29.79 in1008.8 mb 29.69 in1005.4 mb -
Precipitation 0.00 in0.0 mm - -
Hour Temp Dew Point Humidity Winds Wind Gusts Pressure Precip Precip Rate Daily Precip Total
12:00 AM 66.4°F19.1°C 55.9°F13.3°C 69% 4.5 mph W7.2 kmh W 10.7 mph17.2 kmh 29.78 in1008.5 mb 0.00 in0.0 mm 0.00 in0.0 mm 0.00 in0.0 mm
12:05 AM 66.4°F19.1°C 55.9°F13.3°C 69% 6.0 mph W9.7 kmh W 9.8 mph15.8 kmh 29.78 in1008.5 mb 0.00 in0.0 mm 0.00 in0.0 mm 0.00 in0.0 mm
12:10 AM 66.4°F19.1°C 55.9°F13.3°C 69% 3.8 mph W6.1 kmh W 9.8 mph15.8 kmh 29.78 in1008.5 mb 0.00 in0.0 mm 0.00 in0.0 mm 0.00 in0.0 mm
12:15 AM 66.2°F19.0°C 55.8°F13.2°C 69% 6.0 mph W9.7 kmh W 9.2 mph14.8 kmh 29.78 in1008.5 mb 0.00 in0.0 mm 0.00 in0.0 mm 0.00 in0.0 mm
12:20 AM 66.0°F18.9°C 55.6°F13.1°C 69% 6.0 mph W9.7 kmh W 9.2 mph14.8 kmh 29.77 in1008.1 mb 0.00 in0.0 mm 0.00 in0.0 mm 0.00 in0.0 mm
12:25 AM 66.0°F18.9°C 55.6°F13.1°C 69% 4.5 mph W7.2 kmh W 9.2 mph14.8 kmh 29.78 in1008.5 mb 0.00 in0.0 mm 0.00 in0.0 mm 0.00 in0.0 mm
12:30 AM 65.8°F18.8°C 55.4°F13.0°C 69% 5.4 mph W8.7 kmh W 9.8 mph15.8 kmh 29.78 in1008.5 mb 0.00 in0.0 mm 0.00 in0.0 mm 0.00 in0.0 mm
12:35 AM 65.8°F18.8°C 55.4°F13.0°C 69% 5.4 mph W8.7 kmh W 9.8 mph15.8 kmh 29.78 in1008.5 mb 0.00 in0.0 mm 0.00 in0.0 mm 0.00 in0.0 mm
12:40 AM 65.8°F18.8°C 55.4°F13.0°C 69% 3.8 mph W6.1 kmh W 8.3 mph13.4 kmh 29.78 in1008.5 mb 0.00 in0.0 mm 0.00 in0.0 mm 0.00 in0.0 mm
12:45 AM 65.7°F18.7°C 55.2°F12.9°C 69% 5.4 mph W8.7 kmh W 8.3 mph13.4 kmh 29.78 in1008.5 mb 0.00 in0.0 mm 0.00 in0.0 mm 0.00 in0.0 mm
12:50 AM 65.7°F18.7°C 55.6°F13.1°C 70% 3.1 mph W5.0 kmh W 7.6 mph12.2 kmh 29.78 in1008.5 mb 0.00 in0.0 mm 0.00 in0.0 mm 0.00 in0.0 mm
12:55 AM 65.5°F18.6°C 55.5°F13.1°C 70% 5.4 mph W8.7 kmh W 7.6 mph12.2 kmh 29.78 in1008.5 mb 0.00 in0.0 mm 0.00 in0.0 mm 0.00 in0.0 mm
01:00 AM 65.5°F18.6°C 55.5°F13.1°C 70% 5.4 mph WSW8.7 kmh WSW 7.6 mph12.2 kmh 29.78 in1008.5 mb 0.00 in0.0 mm 0.00 in0.0 mm 0.00 in0.0 mm
01:05 AM 65.3°F18.5°C 55.3°F12.9°C 70% 3.1 mph WSW5.0 kmh WSW 7.6 mph12.2 kmh 29.78 in1008.5 mb 0.00 in0.0 mm 0.00 in0.0 mm 0.00 in0.0 mm
01:10 AM 65.1°F18.4°C 55.1°F12.8°C 70% 3.8 mph W6.1 kmh W 6.9 mph11.1 kmh 29.78 in1008.5 mb 0.00 in0.0 mm 0.00 in0.0 mm 0.00 in0.0 mm
01:15 AM 65.1°F18.4°C 55.1°F12.8°C 70% 4.5 mph W7.2 kmh W 7.6 mph12.2 kmh 29.78 in1008.5 mb 0.00 in0.0 mm 0.00 in0.0 mm 0.00 in0.0 mm
01:20 AM 65.1°F18.4°C 55.1°F12.8°C 70% 5.4 mph W8.7 kmh W 7.6 mph12.2 kmh 29.78 in1008.5 mb 0.00 in0.0 mm 0.00 in0.0 mm 0.00 in0.0 mm
01:25 AM 65.1°F18.4°C 55.1°F12.8°C 70% 5.4 mph W8.7 kmh W 8.3 mph13.4 kmh 29.77 in1008.1 mb 0.00 in0.0 mm 0.00 in0.0 mm 0.00 in0.0 mm
01:30 AM 64.9°F18.3°C 54.9°F12.7°C 70% 3.8 mph WNW6.1 kmh WNW 8.3 mph13.4 kmh 29.78 in1008.5 mb 0.00 in0.0 mm 0.00 in0.0 mm 0.00 in0.0 mm
01:35 AM 64.9°F18.3°C 54.9°F12.7°C 70% 3.1 mph WNW5.0 kmh WNW 8.3 mph13.4 kmh 29.78 in1008.5 mb 0.00 in0.0 mm 0.00 in0.0 mm 0.00 in0.0 mm
01:40 AM 64.9°F18.3°C 54.9°F12.7°C 70% 2.2 mph WNW3.5 kmh WNW 7.6 mph12.2 kmh 29.78 in1008.5 mb 0.00 in0.0 mm 0.00 in0.0 mm 0.00 in0.0 mm
01:45 AM 64.6°F18.1°C 54.6°F12.6°C 70% 2.2 mph WNW3.5 kmh WNW 5.4 mph8.7 kmh 29.77 in1008.1 mb 0.00 in0.0 mm 0.00 in0.0 mm 0.00 in0.0 mm
01:50 AM 64.6°F18.1°C 54.6°F12.6°C 70% 3.1 mph WNW5.0 kmh WNW 5.4 mph8.7 kmh 29.77 in1008.1 mb 0.00 in0.0 mm 0.00 in0.0 mm 0.00 in0.0 mm
01:55 AM 64.4°F18.0°C 54.4°F12.4°C 70% 3.8 mph NW6.1 kmh NW 6.9 mph11.1 kmh 29.77 in1008.1 mb 0.00 in0.0 mm 0.00 in0.0 mm 0.00 in0.0 mm
02:00 AM 64.6°F18.1°C 55.0°F12.8°C 71% 2.2 mph NW3.5 kmh NW 6.9 mph11.1 kmh 29.77 in1008.1 mb 0.00 in0.0 mm 0.00 in0.0 mm 0.00 in0.0 mm
02:05 AM 64.4°F18.0°C 54.4°F12.4°C 70% 2.2 mph NW3.5 kmh NW 6.0 mph9.7 kmh 29.76 in1007.8 mb 0.00 in0.0 mm 0.00 in0.0 mm 0.00 in0.0 mm
02:10 AM 64.2°F17.9°C 54.2°F12.3°C 70% 4.5 mph WNW7.2 kmh WNW 8.3 mph13.4 kmh 29.76 in1007.8 mb 0.00 in0.0 mm 0.00 in0.0 mm 0.00 in0.0 mm
02:15 AM 64.2°F17.9°C 54.6°F12.6°C 71% 3.1 mph WNW5.0 kmh WNW 8.3 mph13.4 kmh 29.77 in1008.1 mb 0.00 in0.0 mm 0.00 in0.0 mm 0.00 in0.0 mm
02:20 AM 64.2°F17.9°C 54.6°F12.6°C 71% 3.8 mph WNW6.1 kmh WNW 8.3 mph13.4 kmh 29.76 in1007.8 mb 0.00 in0.0 mm 0.00 in0.0 mm 0.00 in0.0 mm
02:25 AM 64.2°F17.9°C 54.6°F12.6°C 71% 3.1 mph WNW5.0 kmh WNW 6.9 mph11.1 kmh 29.76 in1007.8 mb 0.00 in0.0 mm 0.00 in0.0 mm 0.00 in0.0 mm
02:30 AM 64.2°F17.9°C 54.6°F12.6°C 71% 4.5 mph NW7.2 kmh NW 6.9 mph11.1 kmh 29.76 in1007.8 mb 0.00 in0.0 mm 0.00 in0.0 mm 0.00 in0.0 mm
02:35 AM 64.2°F17.9°C 54.6°F12.6°C 71% 4.5 mph NW7.2 kmh NW 7.6 mph12.2 kmh 29.76 in1007.8 mb 0.00 in0.0 mm 0.00 in0.0 mm 0.00 in0.0 mm
02:40 AM 64.2°F17.9°C 54.6°F12.6°C 71% 4.5 mph WNW7.2 kmh WNW 9.2 mph14.8 kmh 29.75 in1007.5 mb 0.00 in0.0 mm 0.00 in0.0 mm 0.00 in0.0 mm
02:45 AM 64.2°F17.9°C 54.6°F12.6°C 71% 3.8 mph WNW6.1 kmh WNW 9.2 mph14.8 kmh 29.75 in1007.5 mb 0.00 in0.0 mm 0.00 in0.0 mm 0.00 in0.0 mm
02:50 AM 64.2°F17.9°C 54.6°F12.6°C 71% 2.2 mph NW3.5 kmh NW 7.6 mph12.2 kmh 29.75 in1007.5 mb 0.00 in0.0 mm 0.00 in0.0 mm 0.00 in0.0 mm
02:55 AM 64.2°F17.9°C 54.6°F12.6°C 71% 3.8 mph WNW6.1 kmh WNW 7.6 mph12.2 kmh 29.76 in1007.8 mb 0.00 in0.0 mm 0.00 in0.0 mm 0.00 in0.0 mm
03:00 AM 64.0°F17.8°C 54.5°F12.5°C 71% 4.5 mph WNW7.2 kmh WNW 7.6 mph12.2 kmh 29.75 in1007.5 mb 0.00 in0.0 mm 0.00 in0.0 mm 0.00 in0.0 mm
03:05 AM 64.2°F17.9°C 54.6°F12.6°C 71% 3.1 mph W5.0 kmh W 6.9 mph11.1 kmh 29.76 in1007.8 mb 0.00 in0.0 mm 0.00 in0.0 mm 0.00 in0.0 mm
03:10 AM 64.0°F17.8°C 54.5°F12.5°C 71% 3.8 mph W6.1 kmh W 8.3 mph13.4 kmh 29.75 in1007.5 mb 0.00 in0.0 mm 0.00 in0.0 mm 0.00 in0.0 mm
03:15 AM 64.0°F17.8°C 54.5°F12.5°C 71% 3.8 mph WNW6.1 kmh WNW 8.3 mph13.4 kmh 29.75 in1007.5 mb 0.00 in0.0 mm 0.00 in0.0 mm 0.00 in0.0 mm
03:20 AM 64.0°F17.8°C 54.8°F12.7°C 72% 3.8 mph WNW6.1 kmh WNW 9.2 mph14.8 kmh 29.75 in1007.5 mb 0.00 in0.0 mm 0.00 in0.0 mm 0.00 in0.0 mm
03:25 AM 64.0°F17.8°C 54.8°F12.7°C 72% 3.1 mph WNW5.0 kmh WNW 9.2 mph14.8 kmh 29.75 in1007.5 mb 0.00 in0.0 mm 0.00 in0.0 mm 0.00 in0.0 mm
03:30 AM 64.2°F17.9°C 55.0°F12.8°C 72% 3.1 mph W5.0 kmh W 9.8 mph15.8 kmh 29.75 in1007.5 mb 0.00 in0.0 mm 0.00 in0.0 mm 0.00 in0.0 mm
03:35 AM 64.0°F17.8°C 54.8°F12.7°C 72% 4.5 mph W7.2 kmh W 9.8 mph15.8 kmh 29.75 in1007.5 mb 0.00 in0.0 mm 0.00 in0.0 mm 0.00 in0.0 mm
03:40 AM 64.2°F17.9°C 55.0°F12.8°C 72% 4.5 mph W7.2 kmh W 9.2 mph14.8 kmh 29.75 in1007.5 mb 0.00 in0.0 mm 0.00 in0.0 mm 0.00 in0.0 mm
03:45 AM 64.2°F17.9°C 55.0°F12.8°C 72% 3.8 mph W6.1 kmh W 9.2 mph14.8 kmh 29.75 in1007.5 mb 0.00 in0.0 mm 0.00 in0.0 mm 0.00 in0.0 mm
03:50 AM 64.0°F17.8°C 54.8°F12.7°C 72% 4.5 mph W7.2 kmh W 9.8 mph15.8 kmh 29.75 in1007.5 mb 0.00 in0.0 mm 0.00 in0.0 mm 0.00 in0.0 mm
03:55 AM 64.0°F17.8°C 54.8°F12.7°C 72% 5.4 mph W8.7 kmh W 9.8 mph15.8 kmh 29.75 in1007.5 mb 0.00 in0.0 mm 0.00 in0.0 mm 0.00 in0.0 mm
04:00 AM 64.0°F17.8°C 54.8°F12.7°C 72% 3.8 mph W6.1 kmh W 7.6 mph12.2 kmh 29.75 in1007.5 mb 0.00 in0.0 mm 0.00 in0.0 mm 0.00 in0.0 mm
04:05 AM 64.2°F17.9°C 55.0°F12.8°C 72% 5.4 mph W8.7 kmh W 7.6 mph12.2 kmh 29.75 in1007.5 mb 0.00 in0.0 mm 0.00 in0.0 mm 0.00 in0.0 mm
04:10 AM 64.2°F17.9°C 55.0°F12.8°C 72% 3.8 mph W6.1 kmh W 6.9 mph11.1 kmh 29.75 in1007.5 mb 0.00 in0.0 mm 0.00 in0.0 mm 0.00 in0.0 mm
04:15 AM 64.2°F17.9°C 55.0°F12.8°C 72% 1.6 mph WNW2.6 kmh WNW 6.9 mph11.1 kmh 29.75 in1007.5 mb 0.00 in0.0 mm 0.00 in0.0 mm 0.00 in0.0 mm
04:20 AM 64.2°F17.9°C 55.0°F12.8°C 72% 1.6 mph NW2.6 kmh NW 6.0 mph9.7 kmh 29.75 in1007.5 mb 0.00 in0.0 mm 0.00 in0.0 mm 0.00 in0.0 mm
04:25 AM 64.0°F17.8°C 54.8°F12.7°C 72% 3.1 mph NW5.0 kmh NW 5.4 mph8.7 kmh 29.75 in1007.5 mb 0.00 in0.0 mm 0.00 in0.0 mm 0.00 in0.0 mm
04:30 AM 64.0°F17.8°C 54.8°F12.7°C 72% 2.2 mph WNW3.5 kmh WNW 5.4 mph8.7 kmh 29.75 in1007.5 mb 0.00 in0.0 mm 0.00 in0.0 mm 0.00 in0.0 mm
04:35 AM 63.9°F17.7°C 54.7°F12.6°C 72% 2.2 mph WNW3.5 kmh WNW 6.0 mph9.7 kmh 29.75 in1007.5 mb 0.00 in0.0 mm 0.00 in0.0 mm 0.00 in0.0 mm
04:40 AM 63.7°F17.6°C 54.5°F12.5°C 72% 2.2 mph W3.5 kmh W 6.0 mph9.7 kmh 29.75 in1007.5 mb 0.00 in0.0 mm 0.00 in0.0 mm 0.00 in0.0 mm
04:45 AM 63.7°F17.6°C 54.5°F12.5°C 72% 4.5 mph W7.2 kmh W 6.9 mph11.1 kmh 29.75 in1007.5 mb 0.00 in0.0 mm 0.00 in0.0 mm 0.00 in0.0 mm
04:50 AM 63.7°F17.6°C 54.5°F12.5°C 72% 4.5 mph W7.2 kmh W 6.9 mph11.1 kmh 29.75 in1007.5 mb 0.00 in0.0 mm 0.00 in0.0 mm 0.00 in0.0 mm
04:55 AM 63.7°F17.6°C 54.5°F12.5°C 72% 3.8 mph W6.1 kmh W 6.9 mph11.1 kmh 29.74 in1007.1 mb 0.00 in0.0 mm 0.00 in0.0 mm 0.00 in0.0 mm
05:00 AM 63.7°F17.6°C 54.5°F12.5°C 72% 3.8 mph W6.1 kmh W 6.9 mph11.1 kmh 29.75 in1007.5 mb 0.00 in0.0 mm 0.00 in0.0 mm 0.00 in0.0 mm
05:05 AM 63.7°F17.6°C 54.5°F12.5°C 72% 3.1 mph WNW5.0 kmh WNW 6.9 mph11.1 kmh 29.74 in1007.1 mb 0.00 in0.0 mm 0.00 in0.0 mm 0.00 in0.0 mm
05:10 AM 63.5°F17.5°C 54.7°F12.6°C 73% 3.8 mph W6.1 kmh W 8.3 mph13.4 kmh 29.74 in1007.1 mb 0.00 in0.0 mm 0.00 in0.0 mm 0.00 in0.0 mm
05:15 AM 63.7°F17.6°C 54.9°F12.7°C 73% 3.8 mph WNW6.1 kmh WNW 8.3 mph13.4 kmh 29.74 in1007.1 mb 0.00 in0.0 mm 0.00 in0.0 mm 0.00 in0.0 mm
05:20 AM 63.7°F17.6°C 54.9°F12.7°C 73% 3.8 mph NW6.1 kmh NW 7.6 mph12.2 kmh 29.74 in1007.1 mb 0.00 in0.0 mm 0.00 in0.0 mm 0.00 in0.0 mm
05:25 AM 63.7°F17.6°C 54.9°F12.7°C 73% 4.5 mph WNW7.2 kmh WNW 6.9 mph11.1 kmh 29.74 in1007.1 mb 0.00 in0.0 mm 0.00 in0.0 mm 0.00 in0.0 mm
05:30 AM 63.5°F17.5°C 54.7°F12.6°C 73% 3.8 mph W6.1 kmh W 7.6 mph12.2 kmh 29.73 in1006.8 mb 0.00 in0.0 mm 0.00 in0.0 mm 0.00 in0.0 mm
05:35 AM 63.5°F17.5°C 54.7°F12.6°C 73% 3.8 mph WNW6.1 kmh WNW 7.6 mph12.2 kmh 29.73 in1006.8 mb 0.00 in0.0 mm 0.00 in0.0 mm 0.00 in0.0 mm
05:40 AM 63.5°F17.5°C 54.7°F12.6°C 73% 4.5 mph W7.2 kmh W 7.6 mph12.2 kmh 29.73 in1006.8 mb 0.00 in0.0 mm 0.00 in0.0 mm 0.00 in0.0 mm
05:45 AM 63.5°F17.5°C 54.7°F12.6°C 73% 2.2 mph W3.5 kmh W 6.9 mph11.1 kmh 29.73 in1006.8 mb 0.00 in0.0 mm 0.00 in0.0 mm 0.00 in0.0 mm
05:50 AM 63.5°F17.5°C 54.7°F12.6°C 73% 4.5 mph W7.2 kmh W 7.6 mph12.2 kmh 29.73 in1006.8 mb 0.00 in0.0 mm 0.00 in0.0 mm 0.00 in0.0 mm
05:55 AM 63.3°F17.4°C 54.5°F12.5°C 73% 1.6 mph NW2.6 kmh NW 7.6 mph12.2 kmh 29.73 in1006.8 mb 0.00 in0.0 mm 0.00 in0.0 mm 0.00 in0.0 mm
06:00 AM 63.3°F17.4°C 54.5°F12.5°C 73% 2.2 mph WNW3.5 kmh WNW 7.6 mph12.2 kmh 29.74 in1007.1 mb 0.00 in0.0 mm 0.00 in0.0 mm 0.00 in0.0 mm
06:05 AM 63.3°F17.4°C 54.5°F12.5°C 73% 3.8 mph WNW6.1 kmh WNW 6.0 mph9.7 kmh 29.74 in1007.1 mb 0.00 in0.0 mm 0.00 in0.0 mm 0.00 in0.0 mm
06:10 AM 63.3°F17.4°C 54.5°F12.5°C 73% 3.1 mph WNW5.0 kmh WNW 6.0 mph9.7 kmh 29.73 in1006.8 mb 0.00 in0.0 mm 0.00 in0.0 mm 0.00 in0.0 mm
06:15 AM 63.3°F17.4°C 54.5°F12.5°C 73% 2.2 mph WNW3.5 kmh WNW 6.0 mph9.7 kmh 29.74 in1007.1 mb 0.00 in0.0 mm 0.00 in0.0 mm 0.00 in0.0 mm
06:20 AM 63.3°F17.4°C 54.5°F12.5°C 73% 2.2 mph NW3.5 kmh NW 6.0 mph9.7 kmh 29.74 in1007.1 mb 0.00 in0.0 mm 0.00 in0.0 mm 0.00 in0.0 mm
06:25 AM 63.3°F17.4°C 54.9°F12.7°C 74% 3.1 mph NW5.0 kmh NW 6.0 mph9.7 kmh 29.74 in1007.1 mb 0.00 in0.0 mm 0.00 in0.0 mm 0.00 in0.0 mm
06:30 AM 63.3°F17.4°C 54.9°F12.7°C 74% 3.8 mph NW6.1 kmh NW 6.9 mph11.1 kmh 29.74 in1007.1 mb 0.00 in0.0 mm 0.00 in0.0 mm 0.00 in0.0 mm
06:35 AM 63.1°F17.3°C 54.7°F12.6°C 74% 3.1 mph WNW5.0 kmh WNW 7.6 mph12.2 kmh 29.74 in1007.1 mb 0.00 in0.0 mm 0.00 in0.0 mm 0.00 in0.0 mm
06:40 AM 63.3°F17.4°C 54.9°F12.7°C 74% 3.8 mph WNW6.1 kmh WNW 7.6 mph12.2 kmh 29.74 in1007.1 mb 0.00 in0.0 mm 0.00 in0.0 mm 0.00 in0.0 mm
06:45 AM 63.1°F17.3°C 54.7°F12.6°C 74% 3.1 mph W5.0 kmh W 6.0 mph9.7 kmh 29.74 in1007.1 mb 0.00 in0.0 mm 0.00 in0.0 mm 0.00 in0.0 mm
06:50 AM 63.1°F17.3°C 54.7°F12.6°C 74% 3.1 mph WNW5.0 kmh WNW 6.0 mph9.7 kmh 29.75 in1007.5 mb 0.00 in0.0 mm 0.00 in0.0 mm 0.00 in0.0 mm
06:55 AM 63.1°F17.3°C 54.7°F12.6°C 74% 2.2 mph NW3.5 kmh NW 6.9 mph11.1 kmh 29.75 in1007.5 mb 0.00 in0.0 mm 0.00 in0.0 mm 0.00 in0.0 mm
07:00 AM 63.1°F17.3°C 54.7°F12.6°C 74% 3.1 mph WNW5.0 kmh WNW 6.9 mph11.1 kmh 29.75 in1007.5 mb 0.00 in0.0 mm 0.00 in0.0 mm 0.00 in0.0 mm
07:05 AM 63.0°F17.2°C 54.6°F12.6°C 74% 3.1 mph W5.0 kmh W 5.4 mph8.7 kmh 29.74 in1007.1 mb 0.00 in0.0 mm 0.00 in0.0 mm 0.00 in0.0 mm
07:10 AM 63.0°F17.2°C 54.6°F12.6°C 74% 2.2 mph WNW3.5 kmh WNW 5.4 mph8.7 kmh 29.75 in1007.5 mb 0.00 in0.0 mm 0.00 in0.0 mm 0.00 in0.0 mm
07:15 AM 63.1°F17.3°C 54.7°F12.6°C 74% 2.2 mph WNW3.5 kmh WNW 5.4 mph8.7 kmh 29.75 in1007.5 mb 0.00 in0.0 mm 0.00 in0.0 mm 0.00 in0.0 mm
07:20 AM 63.1°F17.3°C 54.7°F12.6°C 74% 2.2 mph NW3.5 kmh NW 5.4 mph8.7 kmh 29.75 in1007.5 mb 0.00 in0.0 mm 0.00 in0.0 mm 0.00 in0.0 mm
07:25 AM 64.0°F17.8°C 56.0°F13.3°C 75% 3.1 mph WNW5.0 kmh WNW 5.4 mph8.7 kmh 29.75 in1007.5 mb 0.00 in0.0 mm 0.00 in0.0 mm 0.00 in0.0 mm
07:30 AM 64.8°F18.2°C 56.3°F13.5°C 74% 2.2 mph W3.5 kmh W 5.4 mph8.7 kmh 29.76 in1007.8 mb 0.00 in0.0 mm 0.00 in0.0 mm 0.00 in0.0 mm
07:35 AM 65.7°F18.7°C 57.2°F14.0°C 74% 2.2 mph W3.5 kmh W 5.4 mph8.7 kmh 29.75 in1007.5 mb 0.00 in0.0 mm 0.00 in0.0 mm 0.00 in0.0 mm
07:40 AM 66.6°F19.2°C 57.7°F14.3°C 73% 3.1 mph W5.0 kmh W 5.4 mph8.7 kmh 29.76 in1007.8 mb 0.00 in0.0 mm 0.00 in0.0 mm 0.00 in0.0 mm
07:45 AM 67.8°F19.9°C 58.5°F14.7°C 72% 3.1 mph W5.0 kmh W 5.4 mph8.7 kmh 29.76 in1007.8 mb 0.00 in0.0 mm 0.00 in0.0 mm 0.00 in0.0 mm
07:50 AM 68.9°F20.5°C 59.1°F15.1°C 71% 4.5 mph W7.2 kmh W 6.0 mph9.7 kmh 29.77 in1008.1 mb 0.00 in0.0 mm 0.00 in0.0 mm 0.00 in0.0 mm
07:55 AM 70.0°F21.1°C 60.2°F15.7°C 71% 3.8 mph W6.1 kmh W 6.0 mph9.7 kmh 29.77 in1008.1 mb 0.00 in0.0 mm 0.00 in0.0 mm 0.00 in0.0 mm
08:00 AM 71.1°F21.7°C 60.4°F15.8°C 69% 5.4 mph W8.7 kmh W 7.6 mph12.2 kmh 29.77 in1008.1 mb 0.00 in0.0 mm 0.00 in0.0 mm 0.00 in0.0 mm
08:05 AM 72.3°F22.4°C 61.2°F16.2°C 68% 3.1 mph W5.0 kmh W 8.3 mph13.4 kmh 29.77 in1008.1 mb 0.00 in0.0 mm 0.00 in0.0 mm 0.00 in0.0 mm
08:10 AM 73.4°F23.0°C 61.8°F16.6°C 67% 6.0 mph WSW9.7 kmh WSW 8.3 mph13.4 kmh 29.77 in1008.1 mb 0.00 in0.0 mm 0.00 in0.0 mm 0.00 in0.0 mm
08:15 AM 74.5°F23.6°C 62.4°F16.9°C 66% 3.8 mph W6.1 kmh W 8.3 mph13.4 kmh 29.77 in1008.1 mb 0.00 in0.0 mm 0.00 in0.0 mm 0.00 in0.0 mm
08:20 AM 75.6°F24.2°C 62.6°F17.0°C 64% 3.1 mph W5.0 kmh W 8.3 mph13.4 kmh 29.77 in1008.1 mb 0.00 in0.0 mm 0.00 in0.0 mm 0.00 in0.0 mm
08:25 AM 76.6°F24.8°C 63.1°F17.3°C 63% 5.4 mph WNW8.7 kmh WNW 11.4 mph18.3 kmh 29.77 in1008.1 mb 0.00 in0.0 mm 0.00 in0.0 mm 0.00 in0.0 mm
08:30 AM 77.2°F25.1°C 63.2°F17.3°C 62% 8.3 mph WNW13.4 kmh WNW 12.1 mph19.5 kmh 29.77 in1008.1 mb 0.00 in0.0 mm 0.00 in0.0 mm 0.00 in0.0 mm
08:35 AM 77.5°F25.3°C 63.1°F17.3°C 61% 4.5 mph NW7.2 kmh NW 13.6 mph21.9 kmh 29.77 in1008.1 mb 0.00 in0.0 mm 0.00 in0.0 mm 0.00 in0.0 mm
08:40 AM 78.4°F25.8°C 63.9°F17.7°C 61% 5.4 mph WNW8.7 kmh WNW 13.6 mph21.9 kmh 29.77 in1008.1 mb 0.00 in0.0 mm 0.00 in0.0 mm 0.00 in0.0 mm
08:45 AM 79.3°F26.3°C 64.3°F17.9°C 60% 7.6 mph W12.2 kmh W 12.1 mph19.5 kmh 29.77 in1008.1 mb 0.00 in0.0 mm 0.00 in0.0 mm 0.00 in0.0 mm
08:50 AM 79.7°F26.5°C 64.1°F17.8°C 59% 6.9 mph W11.1 kmh W 14.5 mph23.3 kmh 29.77 in1008.1 mb 0.00 in0.0 mm 0.00 in0.0 mm 0.00 in0.0 mm
08:55 AM 80.1°F26.7°C 64.5°F18.1°C 59% 3.8 mph WNW6.1 kmh WNW 14.5 mph23.3 kmh 29.77 in1008.1 mb 0.00 in0.0 mm 0.00 in0.0 mm 0.00 in0.0 mm
09:00 AM 81.5°F27.5°C 65.3°F18.5°C 58% 10.7 mph WNW17.2 kmh WNW 13.0 mph20.9 kmh 29.77 in1008.1 mb 0.00 in0.0 mm 0.00 in0.0 mm 0.00 in0.0 mm
09:05 AM 82.6°F28.1°C 65.9°F18.8°C 57% 7.6 mph W12.2 kmh W 15.2 mph24.5 kmh 29.77 in1008.1 mb 0.00 in0.0 mm 0.00 in0.0 mm 0.00 in0.0 mm
09:10 AM 83.3°F28.5°C 66.0°F18.9°C 56% 8.3 mph W13.4 kmh W 15.2 mph24.5 kmh 29.77 in1008.1 mb 0.00 in0.0 mm 0.00 in0.0 mm 0.00 in0.0 mm
09:15 AM 84.0°F28.9°C 66.2°F19.0°C 55% 8.3 mph W13.4 kmh W 15.2 mph24.5 kmh 29.77 in1008.1 mb 0.00 in0.0 mm 0.00 in0.0 mm 0.00 in0.0 mm
09:20 AM 84.7°F29.3°C 66.3°F19.1°C 54% 9.8 mph NW15.8 kmh NW 13.6 mph21.9 kmh 29.78 in1008.5 mb 0.00 in0.0 mm 0.00 in0.0 mm 0.00 in0.0 mm
09:25 AM 85.6°F29.8°C 67.1°F19.5°C 54% 6.0 mph NW9.7 kmh NW 19.0 mph30.6 kmh 29.78 in1008.5 mb 0.00 in0.0 mm 0.00 in0.0 mm 0.00 in0.0 mm
09:30 AM 86.2°F30.1°C 67.1°F19.5°C 53% 6.0 mph WNW9.7 kmh WNW 19.0 mph30.6 kmh 29.78 in1008.5 mb 0.00 in0.0 mm 0.00 in0.0 mm 0.00 in0.0 mm
09:35 AM 86.9°F30.5°C 67.2°F19.6°C 52% 7.6 mph WNW12.2 kmh WNW 14.5 mph23.3 kmh 29.78 in1008.5 mb 0.00 in0.0 mm 0.00 in0.0 mm 0.00 in0.0 mm
09:40 AM 87.4°F30.8°C 67.1°F19.5°C 51% 8.3 mph W13.4 kmh W 15.9 mph25.6 kmh 29.78 in1008.5 mb 0.00 in0.0 mm 0.00 in0.0 mm 0.00 in0.0 mm
09:45 AM 87.6°F30.9°C 67.3°F19.6°C 51% 9.8 mph W15.8 kmh W 15.9 mph25.6 kmh 29.78 in1008.5 mb 0.00 in0.0 mm 0.00 in0.0 mm 0.00 in0.0 mm
09:50 AM 88.0°F31.1°C 67.1°F19.5°C 50% 9.2 mph WNW14.8 kmh WNW 15.2 mph24.5 kmh 29.78 in1008.5 mb 0.00 in0.0 mm 0.00 in0.0 mm 0.00 in0.0 mm
09:55 AM 88.0°F31.1°C 67.1°F19.5°C 50% 6.0 mph W9.7 kmh W 15.2 mph24.5 kmh 29.78 in1008.5 mb 0.00 in0.0 mm 0.00 in0.0 mm 0.00 in0.0 mm
10:00 AM 88.7°F31.5°C 67.7°F19.8°C 50% 6.0 mph W9.7 kmh W 14.5 mph23.3 kmh 29.78 in1008.5 mb 0.00 in0.0 mm 0.00 in0.0 mm 0.00 in0.0 mm
10:05 AM 89.4°F31.9°C 67.8°F19.9°C 49% 9.2 mph W14.8 kmh W 16.8 mph27.0 kmh 29.78 in1008.5 mb 0.00 in0.0 mm 0.00 in0.0 mm 0.00 in0.0 mm
10:10 AM 90.0°F32.2°C 68.3°F20.2°C 49% 8.3 mph WNW13.4 kmh WNW 16.8 mph27.0 kmh 29.78 in1008.5 mb 0.00 in0.0 mm 0.00 in0.0 mm 0.00 in0.0 mm
10:15 AM 90.7°F32.6°C 68.4°F20.2°C 48% 9.8 mph NW15.8 kmh NW 16.8 mph27.0 kmh 29.78 in1008.5 mb 0.00 in0.0 mm 0.00 in0.0 mm 0.00 in0.0 mm
10:20 AM 91.4°F33.0°C 68.4°F20.2°C 47% 7.6 mph WNW12.2 kmh WNW 16.8 mph27.0 kmh 29.78 in1008.5 mb 0.00 in0.0 mm 0.00 in0.0 mm 0.00 in0.0 mm
10:25 AM 91.6°F33.1°C 68.6°F20.3°C 47% 7.6 mph WNW12.2 kmh WNW 16.8 mph27.0 kmh 29.78 in1008.5 mb 0.00 in0.0 mm 0.00 in0.0 mm 0.00 in0.0 mm
10:30 AM 91.8°F33.2°C 68.1°F20.1°C 46% 9.2 mph WNW14.8 kmh WNW 15.9 mph25.6 kmh 29.79 in1008.8 mb 0.00 in0.0 mm 0.00 in0.0 mm 0.00 in0.0 mm
10:35 AM 91.9°F33.3°C 68.9°F20.5°C 47% 7.6 mph WNW12.2 kmh WNW 15.9 mph25.6 kmh 29.79 in1008.8 mb 0.00 in0.0 mm 0.00 in0.0 mm 0.00 in0.0 mm
10:40 AM 92.5°F33.6°C 68.8°F20.4°C 46% 12.1 mph W19.5 kmh W 17.4 mph28.0 kmh 29.79 in1008.8 mb 0.00 in0.0 mm 0.00 in0.0 mm 0.00 in0.0 mm
10:45 AM 92.5°F33.6°C 68.8°F20.4°C 46% 6.0 mph W9.7 kmh W 17.4 mph28.0 kmh 29.79 in1008.8 mb 0.00 in0.0 mm 0.00 in0.0 mm 0.00 in0.0 mm
10:50 AM 92.3°F33.5°C 68.6°F20.3°C 46% 12.1 mph WNW19.5 kmh WNW 19.7 mph31.7 kmh 29.78 in1008.5 mb 0.00 in0.0 mm 0.00 in0.0 mm 0.00 in0.0 mm
10:55 AM 91.9°F33.3°C 68.3°F20.2°C 46% 11.4 mph W18.3 kmh W 19.7 mph31.7 kmh 29.79 in1008.8 mb 0.00 in0.0 mm 0.00 in0.0 mm 0.00 in0.0 mm
11:00 AM 92.8°F33.8°C 69.1°F20.6°C 46% 8.3 mph W13.4 kmh W 18.3 mph29.5 kmh 29.78 in1008.5 mb 0.00 in0.0 mm 0.00 in0.0 mm 0.00 in0.0 mm
11:05 AM 92.3°F33.5°C 68.6°F20.3°C 46% 10.7 mph WNW17.2 kmh WNW 17.4 mph28.0 kmh 29.78 in1008.5 mb 0.00 in0.0 mm 0.00 in0.0 mm 0.00 in0.0 mm
11:10 AM 91.0°F32.8°C 67.5°F19.7°C 46% 9.2 mph W14.8 kmh W 16.8 mph27.0 kmh 29.78 in1008.5 mb 0.00 in0.0 mm 0.00 in0.0 mm 0.00 in0.0 mm
11:15 AM 90.3°F32.4°C 67.4°F19.7°C 47% 9.8 mph WSW15.8 kmh WSW 16.8 mph27.0 kmh 29.78 in1008.5 mb 0.00 in0.0 mm 0.00 in0.0 mm 0.00 in0.0 mm
11:20 AM 90.1°F32.3°C 67.9°F19.9°C 48% 9.8 mph W15.8 kmh W 16.8 mph27.0 kmh 29.79 in1008.8 mb 0.00 in0.0 mm 0.00 in0.0 mm 0.00 in0.0 mm
11:25 AM 91.2°F32.9°C 68.2°F20.1°C 47% 9.2 mph W14.8 kmh W 16.8 mph27.0 kmh 29.78 in1008.5 mb 0.00 in0.0 mm 0.00 in0.0 mm 0.00 in0.0 mm
11:30 AM 91.4°F33.0°C 67.8°F19.9°C 46% 13.0 mph W20.9 kmh W 19.0 mph30.6 kmh 29.78 in1008.5 mb 0.00 in0.0 mm 0.00 in0.0 mm 0.00 in0.0 mm
11:35 AM 92.3°F33.5°C 68.6°F20.3°C 46% 7.6 mph WNW12.2 kmh WNW 22.8 mph36.7 kmh 29.78 in1008.5 mb 0.00 in0.0 mm 0.00 in0.0 mm 0.00 in0.0 mm
11:40 AM 93.4°F34.1°C 68.9°F20.5°C 45% 9.8 mph WNW15.8 kmh WNW 22.8 mph36.7 kmh 29.78 in1008.5 mb 0.00 in0.0 mm 0.00 in0.0 mm 0.00 in0.0 mm
11:45 AM 93.7°F34.3°C 69.3°F20.7°C 45% 4.5 mph WNW7.2 kmh WNW 19.7 mph31.7 kmh 29.78 in1008.5 mb 0.00 in0.0 mm 0.00 in0.0 mm 0.00 in0.0 mm
11:50 AM 93.7°F34.3°C 69.3°F20.7°C 45% 7.6 mph WNW12.2 kmh WNW 15.9 mph25.6 kmh 29.78 in1008.5 mb 0.00 in0.0 mm 0.00 in0.0 mm 0.00 in0.0 mm
11:55 AM 93.6°F34.2°C 68.4°F20.2°C 44% 9.8 mph WNW15.8 kmh WNW 16.8 mph27.0 kmh 29.78 in1008.5 mb 0.00 in0.0 mm 0.00 in0.0 mm 0.00 in0.0 mm
12:00 PM 93.7°F34.3°C 67.9°F19.9°C 43% 15.2 mph W24.5 kmh W 20.6 mph33.2 kmh 29.78 in1008.5 mb 0.00 in0.0 mm 0.00 in0.0 mm 0.00 in0.0 mm
12:05 PM 93.9°F34.4°C 68.1°F20.1°C 43% 13.0 mph W20.9 kmh W 20.6 mph33.2 kmh 29.77 in1008.1 mb 0.00 in0.0 mm 0.00 in0.0 mm 0.00 in0.0 mm
12:10 PM 94.1°F34.5°C 68.3°F20.2°C 43% 10.7 mph W17.2 kmh W 19.7 mph31.7 kmh 29.78 in1008.5 mb 0.00 in0.0 mm 0.00 in0.0 mm 0.00 in0.0 mm
12:15 PM 93.9°F34.4°C 67.4°F19.7°C 42% 15.2 mph W24.5 kmh W 19.7 mph31.7 kmh 29.78 in1008.5 mb 0.00 in0.0 mm 0.00 in0.0 mm 0.00 in0.0 mm
12:20 PM 93.7°F34.3°C 67.3°F19.6°C 42% 12.1 mph W19.5 kmh W 24.4 mph39.3 kmh 29.78 in1008.5 mb 0.00 in0.0 mm 0.00 in0.0 mm 0.00 in0.0 mm
12:25 PM 94.3°F34.6°C 67.7°F19.8°C 42% 11.4 mph W18.3 kmh W 24.4 mph39.3 kmh 29.77 in1008.1 mb 0.00 in0.0 mm 0.00 in0.0 mm 0.00 in0.0 mm
12:30 PM 94.5°F34.7°C 67.2°F19.6°C 41% 14.5 mph W23.3 kmh W 19.0 mph30.6 kmh 29.77 in1008.1 mb 0.00 in0.0 mm 0.00 in0.0 mm 0.00 in0.0 mm
12:35 PM 94.5°F34.7°C 67.2°F19.6°C 41% 9.2 mph W14.8 kmh W 19.0 mph30.6 kmh 29.77 in1008.1 mb 0.00 in0.0 mm 0.00 in0.0 mm 0.00 in0.0 mm
12:40 PM 94.8°F34.9°C 67.5°F19.7°C 41% 9.8 mph W15.8 kmh W 19.0 mph30.6 kmh 29.77 in1008.1 mb 0.00 in0.0 mm 0.00 in0.0 mm 0.00 in0.0 mm
12:45 PM 94.8°F34.9°C 66.8°F19.3°C 40% 13.0 mph WNW20.9 kmh WNW 19.0 mph30.6 kmh 29.77 in1008.1 mb 0.00 in0.0 mm 0.00 in0.0 mm 0.00 in0.0 mm
12:50 PM 94.6°F34.8°C 66.6°F19.2°C 40% 7.6 mph WNW12.2 kmh WNW 19.0 mph30.6 kmh 29.77 in1008.1 mb 0.00 in0.0 mm 0.00 in0.0 mm 0.00 in0.0 mm
12:55 PM 94.6°F34.8°C 65.9°F18.8°C 39% 14.5 mph WNW23.3 kmh WNW 20.6 mph33.2 kmh 29.77 in1008.1 mb 0.00 in0.0 mm 0.00 in0.0 mm 0.00 in0.0 mm
01:00 PM 94.6°F34.8°C 65.2°F18.4°C 38% 9.2 mph W14.8 kmh W 20.6 mph33.2 kmh 29.77 in1008.1 mb 0.00 in0.0 mm 0.00 in0.0 mm 0.00 in0.0 mm
01:05 PM 95.0°F35.0°C 66.2°F19.0°C 39% 8.3 mph WNW13.4 kmh WNW 19.0 mph30.6 kmh 29.76 in1007.8 mb 0.00 in0.0 mm 0.00 in0.0 mm 0.00 in0.0 mm
01:10 PM 95.2°F35.1°C 65.6°F18.7°C 38% 13.6 mph W21.9 kmh W 18.3 mph29.5 kmh 29.76 in1007.8 mb 0.00 in0.0 mm 0.00 in0.0 mm 0.00 in0.0 mm
01:15 PM 95.2°F35.1°C 65.6°F18.7°C 38% 10.7 mph W17.2 kmh W 18.3 mph29.5 kmh 29.75 in1007.5 mb 0.00 in0.0 mm 0.00 in0.0 mm 0.00 in0.0 mm
01:20 PM 95.0°F35.0°C 66.2°F19.0°C 39% 9.8 mph NW15.8 kmh NW 18.3 mph29.5 kmh 29.75 in1007.5 mb 0.00 in0.0 mm 0.00 in0.0 mm 0.00 in0.0 mm
01:25 PM 94.6°F34.8°C 65.2°F18.4°C 38% 8.3 mph NW13.4 kmh NW 17.4 mph28.0 kmh 29.75 in1007.5 mb 0.00 in0.0 mm 0.00 in0.0 mm 0.00 in0.0 mm
01:30 PM 94.8°F34.9°C 65.3°F18.5°C 38% 10.7 mph WNW17.2 kmh WNW 18.3 mph29.5 kmh 29.75 in1007.5 mb 0.00 in0.0 mm 0.00 in0.0 mm 0.00 in0.0 mm
01:35 PM 95.2°F35.1°C 65.6°F18.7°C 38% 9.2 mph WNW14.8 kmh WNW 18.3 mph29.5 kmh 29.75 in1007.5 mb 0.00 in0.0 mm 0.00 in0.0 mm 0.00 in0.0 mm
01:40 PM 94.8°F34.9°C 65.3°F18.5°C 38% 10.7 mph WNW17.2 kmh WNW 18.3 mph29.5 kmh 29.75 in1007.5 mb 0.00 in0.0 mm 0.00 in0.0 mm 0.00 in0.0 mm
01:45 PM 94.8°F34.9°C 65.3°F18.5°C 38% 6.9 mph NW11.1 kmh NW 18.3 mph29.5 kmh 29.75 in1007.5 mb 0.00 in0.0 mm 0.00 in0.0 mm 0.00 in0.0 mm
01:50 PM 95.2°F35.1°C 65.6°F18.7°C 38% 11.4 mph WNW18.3 kmh WNW 16.8 mph27.0 kmh 29.74 in1007.1 mb 0.00 in0.0 mm 0.00 in0.0 mm 0.00 in0.0 mm
01:55 PM 95.5°F35.3°C 65.2°F18.4°C 37% 6.9 mph WNW11.1 kmh WNW 15.9 mph25.6 kmh 29.74 in1007.1 mb 0.00 in0.0 mm 0.00 in0.0 mm 0.00 in0.0 mm
02:00 PM 95.4°F35.2°C 64.2°F17.9°C 36% 11.4 mph WNW18.3 kmh WNW 18.3 mph29.5 kmh 29.74 in1007.1 mb 0.00 in0.0 mm 0.00 in0.0 mm 0.00 in0.0 mm
02:05 PM 95.2°F35.1°C 64.1°F17.8°C 36% 9.2 mph W14.8 kmh W 18.3 mph29.5 kmh 29.74 in1007.1 mb 0.00 in0.0 mm 0.00 in0.0 mm 0.00 in0.0 mm
02:10 PM 95.4°F35.2°C 63.4°F17.4°C 35% 8.3 mph W13.4 kmh W 20.6 mph33.2 kmh 29.74 in1007.1 mb 0.00 in0.0 mm 0.00 in0.0 mm 0.00 in0.0 mm
02:15 PM 95.2°F35.1°C 63.3°F17.4°C 35% 9.8 mph W15.8 kmh W 20.6 mph33.2 kmh 29.74 in1007.1 mb 0.00 in0.0 mm 0.00 in0.0 mm 0.00 in0.0 mm
02:20 PM 95.2°F35.1°C 63.3°F17.4°C 35% 10.7 mph W17.2 kmh W 19.0 mph30.6 kmh 29.74 in1007.1 mb 0.00 in0.0 mm 0.00 in0.0 mm 0.00 in0.0 mm
02:25 PM 95.2°F35.1°C 64.1°F17.8°C 36% 9.2 mph WNW14.8 kmh WNW 19.0 mph30.6 kmh 29.73 in1006.8 mb 0.00 in0.0 mm 0.00 in0.0 mm 0.00 in0.0 mm
02:30 PM 95.2°F35.1°C 63.3°F17.4°C 35% 5.4 mph NW8.7 kmh NW 15.9 mph25.6 kmh 29.73 in1006.8 mb 0.00 in0.0 mm 0.00 in0.0 mm 0.00 in0.0 mm
02:35 PM 95.2°F35.1°C 63.3°F17.4°C 35% 8.3 mph NW13.4 kmh NW 15.9 mph25.6 kmh 29.73 in1006.8 mb 0.00 in0.0 mm 0.00 in0.0 mm 0.00 in0.0 mm
02:40 PM 95.2°F35.1°C 64.1°F17.8°C 36% 8.3 mph WNW13.4 kmh WNW 15.9 mph25.6 kmh 29.73 in1006.8 mb 0.00 in0.0 mm 0.00 in0.0 mm 0.00 in0.0 mm
02:45 PM 95.2°F35.1°C 64.1°F17.8°C 36% 12.1 mph W19.5 kmh W 17.4 mph28.0 kmh 29.73 in1006.8 mb 0.00 in0.0 mm 0.00 in0.0 mm 0.00 in0.0 mm
02:50 PM 95.4°F35.2°C 63.4°F17.4°C 35% 11.4 mph WNW18.3 kmh WNW 17.4 mph28.0 kmh 29.73 in1006.8 mb 0.00 in0.0 mm 0.00 in0.0 mm 0.00 in0.0 mm
02:55 PM 95.4°F35.2°C 63.4°F17.4°C 35% 9.2 mph WNW14.8 kmh WNW 17.4 mph28.0 kmh 29.73 in1006.8 mb 0.00 in0.0 mm 0.00 in0.0 mm 0.00 in0.0 mm
03:00 PM 95.4°F35.2°C 63.4°F17.4°C 35% 6.0 mph NW9.7 kmh NW 15.2 mph24.5 kmh 29.72 in1006.4 mb 0.00 in0.0 mm 0.00 in0.0 mm 0.00 in0.0 mm
03:05 PM 95.0°F35.0°C 63.1°F17.3°C 35% 9.2 mph W14.8 kmh W 17.4 mph28.0 kmh 29.72 in1006.4 mb 0.00 in0.0 mm 0.00 in0.0 mm 0.00 in0.0 mm
03:10 PM 95.0°F35.0°C 63.9°F17.7°C 36% 7.6 mph W12.2 kmh W 17.4 mph28.0 kmh 29.72 in1006.4 mb 0.00 in0.0 mm 0.00 in0.0 mm 0.00 in0.0 mm
03:15 PM 94.8°F34.9°C 63.8°F17.7°C 36% 8.3 mph NW13.4 kmh NW 15.9 mph25.6 kmh 29.72 in1006.4 mb 0.00 in0.0 mm 0.00 in0.0 mm 0.00 in0.0 mm
03:20 PM 94.3°F34.6°C 63.3°F17.4°C 36% 9.8 mph NW15.8 kmh NW 15.9 mph25.6 kmh 29.72 in1006.4 mb 0.00 in0.0 mm 0.00 in0.0 mm 0.00 in0.0 mm
03:25 PM 93.9°F34.4°C 62.2°F16.8°C 35% 13.0 mph W20.9 kmh W 16.8 mph27.0 kmh 29.71 in1006.1 mb 0.00 in0.0 mm 0.00 in0.0 mm 0.00 in0.0 mm
03:30 PM 93.7°F34.3°C 62.0°F16.7°C 35% 6.9 mph W11.1 kmh W 18.3 mph29.5 kmh 29.72 in1006.4 mb 0.00 in0.0 mm 0.00 in0.0 mm 0.00 in0.0 mm
03:35 PM 93.2°F34.0°C 62.3°F16.8°C 36% 7.6 mph W12.2 kmh W 18.3 mph29.5 kmh 29.71 in1006.1 mb 0.00 in0.0 mm 0.00 in0.0 mm 0.00 in0.0 mm
03:40 PM 93.0°F33.9°C 62.2°F16.8°C 36% 11.4 mph W18.3 kmh W 15.9 mph25.6 kmh 29.71 in1006.1 mb 0.00 in0.0 mm 0.00 in0.0 mm 0.00 in0.0 mm
03:45 PM 92.8°F33.8°C 62.0°F16.7°C 36% 8.3 mph W13.4 kmh W 15.9 mph25.6 kmh 29.71 in1006.1 mb 0.00 in0.0 mm 0.00 in0.0 mm 0.00 in0.0 mm
03:50 PM 92.7°F33.7°C 62.6°F17.0°C 37% 10.7 mph WNW17.2 kmh WNW 15.9 mph25.6 kmh 29.71 in1006.1 mb 0.00 in0.0 mm 0.00 in0.0 mm 0.00 in0.0 mm
03:55 PM 92.3°F33.5°C 62.3°F16.8°C 37% 8.3 mph NW13.4 kmh NW 15.9 mph25.6 kmh 29.71 in1006.1 mb 0.00 in0.0 mm 0.00 in0.0 mm 0.00 in0.0 mm
04:00 PM 91.8°F33.2°C 61.8°F16.6°C 37% 13.0 mph NW20.9 kmh NW 17.4 mph28.0 kmh 29.70 in1005.8 mb 0.00 in0.0 mm 0.00 in0.0 mm 0.00 in0.0 mm
04:05 PM 91.0°F32.8°C 61.2°F16.2°C 37% 13.0 mph WNW20.9 kmh WNW 17.4 mph28.0 kmh 29.70 in1005.8 mb 0.00 in0.0 mm 0.00 in0.0 mm 0.00 in0.0 mm
04:10 PM 90.7°F32.6°C 61.6°F16.4°C 38% 10.7 mph WNW17.2 kmh WNW 19.7 mph31.7 kmh 29.70 in1005.8 mb 0.00 in0.0 mm 0.00 in0.0 mm 0.00 in0.0 mm
04:15 PM 90.7°F32.6°C 62.4°F16.9°C 39% 9.2 mph WNW14.8 kmh WNW 19.7 mph31.7 kmh 29.70 in1005.8 mb 0.00 in0.0 mm 0.00 in0.0 mm 0.00 in0.0 mm
04:20 PM 90.5°F32.5°C 62.2°F16.8°C 39% 7.6 mph WNW12.2 kmh WNW 15.2 mph24.5 kmh 29.70 in1005.8 mb 0.00 in0.0 mm 0.00 in0.0 mm 0.00 in0.0 mm
04:25 PM 90.3°F32.4°C 62.1°F16.7°C 39% 3.8 mph W6.1 kmh W 15.2 mph24.5 kmh 29.70 in1005.8 mb 0.00 in0.0 mm 0.00 in0.0 mm 0.00 in0.0 mm
04:30 PM 90.3°F32.4°C 62.8°F17.1°C 40% 6.0 mph W9.7 kmh W 14.5 mph23.3 kmh 29.70 in1005.8 mb 0.00 in0.0 mm 0.00 in0.0 mm 0.00 in0.0 mm
04:35 PM 90.0°F32.2°C 61.7°F16.5°C 39% 6.9 mph W11.1 kmh W 17.4 mph28.0 kmh 29.69 in1005.4 mb 0.00 in0.0 mm 0.00 in0.0 mm 0.00 in0.0 mm
04:40 PM 89.6°F32.0°C 62.1°F16.7°C 40% 8.3 mph WNW13.4 kmh WNW 17.4 mph28.0 kmh 29.70 in1005.8 mb 0.00 in0.0 mm 0.00 in0.0 mm 0.00 in0.0 mm
04:45 PM 89.2°F31.8°C 61.8°F16.6°C 40% 9.8 mph NW15.8 kmh NW 15.2 mph24.5 kmh 29.70 in1005.8 mb 0.00 in0.0 mm 0.00 in0.0 mm 0.00 in0.0 mm
04:50 PM 88.9°F31.6°C 62.2°F16.8°C 41% 13.0 mph NW20.9 kmh NW 15.9 mph25.6 kmh 29.70 in1005.8 mb 0.00 in0.0 mm 0.00 in0.0 mm 0.00 in0.0 mm
04:55 PM 88.5°F31.4°C 61.9°F16.6°C 41% 9.8 mph WNW15.8 kmh WNW 16.8 mph27.0 kmh 29.70 in1005.8 mb 0.00 in0.0 mm 0.00 in0.0 mm 0.00 in0.0 mm
05:00 PM 88.3°F31.3°C 61.7°F16.5°C 41% 9.2 mph W14.8 kmh W 16.8 mph27.0 kmh 29.70 in1005.8 mb 0.00 in0.0 mm 0.00 in0.0 mm 0.00 in0.0 mm
05:05 PM 87.8°F31.0°C 61.9°F16.6°C 42% 6.9 mph W11.1 kmh W 14.5 mph23.3 kmh 29.70 in1005.8 mb 0.00 in0.0 mm 0.00 in0.0 mm 0.00 in0.0 mm
05:10 PM 87.4°F30.8°C 61.6°F16.4°C 42% 10.7 mph WNW17.2 kmh WNW 17.4 mph28.0 kmh 29.70 in1005.8 mb 0.00 in0.0 mm 0.00 in0.0 mm 0.00 in0.0 mm
05:15 PM 86.9°F30.5°C 61.1°F16.2°C 42% 10.7 mph WNW17.2 kmh WNW 17.4 mph28.0 kmh 29.69 in1005.4 mb 0.00 in0.0 mm 0.00 in0.0 mm 0.00 in0.0 mm
05:20 PM 86.4°F30.2°C 61.3°F16.3°C 43% 11.4 mph WNW18.3 kmh WNW 17.4 mph28.0 kmh 29.69 in1005.4 mb 0.00 in0.0 mm 0.00 in0.0 mm 0.00 in0.0 mm
05:25 PM 86.0°F30.0°C 61.6°F16.4°C 44% 12.1 mph W19.5 kmh W 17.4 mph28.0 kmh 29.70 in1005.8 mb 0.00 in0.0 mm 0.00 in0.0 mm 0.00 in0.0 mm
05:30 PM 85.6°F29.8°C 61.3°F16.3°C 44% 6.9 mph W11.1 kmh W 17.4 mph28.0 kmh 29.69 in1005.4 mb 0.00 in0.0 mm 0.00 in0.0 mm 0.00 in0.0 mm
05:35 PM 85.3°F29.6°C 61.0°F16.1°C 44% 12.1 mph W19.5 kmh W 17.4 mph28.0 kmh 29.70 in1005.8 mb 0.00 in0.0 mm 0.00 in0.0 mm 0.00 in0.0 mm
05:40 PM 84.9°F29.4°C 61.3°F16.3°C 45% 9.8 mph W15.8 kmh W 16.8 mph27.0 kmh 29.69 in1005.4 mb 0.00 in0.0 mm 0.00 in0.0 mm 0.00 in0.0 mm
05:45 PM 84.4°F29.1°C 60.8°F16.0°C 45% 11.4 mph W18.3 kmh W 16.8 mph27.0 kmh 29.70 in1005.8 mb 0.00 in0.0 mm 0.00 in0.0 mm 0.00 in0.0 mm
05:50 PM 83.8°F28.8°C 60.3°F15.7°C 45% 9.2 mph W14.8 kmh W 15.9 mph25.6 kmh 29.70 in1005.8 mb 0.00 in0.0 mm 0.00 in0.0 mm 0.00 in0.0 mm
05:55 PM 83.7°F28.7°C 60.7°F15.9°C 46% 8.3 mph W13.4 kmh W 13.6 mph21.9 kmh 29.70 in1005.8 mb 0.00 in0.0 mm 0.00 in0.0 mm 0.00 in0.0 mm
06:00 PM 83.1°F28.4°C 60.9°F16.1°C 47% 7.6 mph W12.2 kmh W 13.6 mph21.9 kmh 29.70 in1005.8 mb 0.00 in0.0 mm 0.00 in0.0 mm 0.00 in0.0 mm
06:05 PM 82.6°F28.1°C 60.4°F15.8°C 47% 5.4 mph WNW8.7 kmh WNW 13.0 mph20.9 kmh 29.69 in1005.4 mb 0.00 in0.0 mm 0.00 in0.0 mm 0.00 in0.0 mm
06:10 PM 82.4°F28.0°C 60.8°F16.0°C 48% 6.9 mph WNW11.1 kmh WNW 13.0 mph20.9 kmh 29.70 in1005.8 mb 0.00 in0.0 mm 0.00 in0.0 mm 0.00 in0.0 mm
06:15 PM 82.2°F27.9°C 60.6°F15.9°C 48% 13.0 mph W20.9 kmh W 17.4 mph28.0 kmh 29.70 in1005.8 mb 0.00 in0.0 mm 0.00 in0.0 mm 0.00 in0.0 mm
06:20 PM 81.5°F27.5°C 60.0°F15.6°C 48% 9.2 mph W14.8 kmh W 17.4 mph28.0 kmh 29.70 in1005.8 mb 0.00 in0.0 mm 0.00 in0.0 mm 0.00 in0.0 mm
06:25 PM 81.1°F27.3°C 59.6°F15.3°C 48% 9.2 mph WSW14.8 kmh WSW 15.9 mph25.6 kmh 29.70 in1005.8 mb 0.00 in0.0 mm 0.00 in0.0 mm 0.00 in0.0 mm
06:30 PM 80.8°F27.1°C 59.9°F15.5°C 49% 8.3 mph WSW13.4 kmh WSW 14.5 mph23.3 kmh 29.70 in1005.8 mb 0.00 in0.0 mm 0.00 in0.0 mm 0.00 in0.0 mm
06:35 PM 80.2°F26.8°C 60.0°F15.6°C 50% 9.2 mph W14.8 kmh W 13.6 mph21.9 kmh 29.70 in1005.8 mb 0.00 in0.0 mm 0.00 in0.0 mm 0.00 in0.0 mm
06:40 PM 79.9°F26.6°C 59.6°F15.3°C 50% 6.9 mph WNW11.1 kmh WNW 12.1 mph19.5 kmh 29.70 in1005.8 mb 0.00 in0.0 mm 0.00 in0.0 mm 0.00 in0.0 mm
06:45 PM 79.5°F26.4°C 59.3°F15.2°C 50% 7.6 mph WNW12.2 kmh WNW 12.1 mph19.5 kmh 29.70 in1005.8 mb 0.00 in0.0 mm 0.00 in0.0 mm 0.00 in0.0 mm
06:50 PM 79.0°F26.1°C 59.3°F15.2°C 51% 7.6 mph WNW12.2 kmh WNW 13.6 mph21.9 kmh 29.71 in1006.1 mb 0.00 in0.0 mm 0.00 in0.0 mm 0.00 in0.0 mm
06:55 PM 78.6°F25.9°C 59.0°F15.0°C 51% 4.5 mph W7.2 kmh W 13.6 mph21.9 kmh 29.70 in1005.8 mb 0.00 in0.0 mm 0.00 in0.0 mm 0.00 in0.0 mm
07:00 PM 78.3°F25.7°C 59.2°F15.1°C 52% 6.0 mph WNW9.7 kmh WNW 10.7 mph17.2 kmh 29.70 in1005.8 mb 0.00 in0.0 mm 0.00 in0.0 mm 0.00 in0.0 mm
07:05 PM 77.9°F25.5°C 58.9°F14.9°C 52% 9.2 mph W14.8 kmh W 13.6 mph21.9 kmh 29.70 in1005.8 mb 0.00 in0.0 mm 0.00 in0.0 mm 0.00 in0.0 mm
07:10 PM 77.4°F25.2°C 58.9°F14.9°C 53% 8.3 mph WSW13.4 kmh WSW 13.6 mph21.9 kmh 29.69 in1005.4 mb 0.00 in0.0 mm 0.00 in0.0 mm 0.00 in0.0 mm
07:15 PM 77.0°F25.0°C 58.6°F14.8°C 53% 5.4 mph WSW8.7 kmh WSW 13.6 mph21.9 kmh 29.70 in1005.8 mb 0.00 in0.0 mm 0.00 in0.0 mm 0.00 in0.0 mm
07:20 PM 76.5°F24.7°C 58.6°F14.8°C 54% 5.4 mph W8.7 kmh W 13.6 mph21.9 kmh 29.70 in1005.8 mb 0.00 in0.0 mm 0.00 in0.0 mm 0.00 in0.0 mm
07:25 PM 75.7°F24.3°C 57.9°F14.4°C 54% 5.4 mph W8.7 kmh W 10.7 mph17.2 kmh 29.70 in1005.8 mb 0.00 in0.0 mm 0.00 in0.0 mm 0.00 in0.0 mm
07:30 PM 75.4°F24.1°C 58.1°F14.5°C 55% 8.3 mph W13.4 kmh W 13.0 mph20.9 kmh 29.71 in1006.1 mb 0.00 in0.0 mm 0.00 in0.0 mm 0.00 in0.0 mm
07:35 PM 75.0°F23.9°C 57.8°F14.3°C 55% 7.6 mph W12.2 kmh W 13.0 mph20.9 kmh 29.70 in1005.8 mb 0.00 in0.0 mm 0.00 in0.0 mm 0.00 in0.0 mm
07:40 PM 74.3°F23.5°C 57.6°F14.2°C 56% 6.0 mph W9.7 kmh W 13.0 mph20.9 kmh 29.70 in1005.8 mb 0.00 in0.0 mm 0.00 in0.0 mm 0.00 in0.0 mm
07:45 PM 73.9°F23.3°C 57.8°F14.3°C 57% 9.8 mph WSW15.8 kmh WSW 13.6 mph21.9 kmh 29.70 in1005.8 mb 0.00 in0.0 mm 0.00 in0.0 mm 0.00 in0.0 mm
07:50 PM 73.6°F23.1°C 57.4°F14.1°C 57% 8.3 mph W13.4 kmh W 13.6 mph21.9 kmh 29.71 in1006.1 mb 0.00 in0.0 mm 0.00 in0.0 mm 0.00 in0.0 mm
07:55 PM 73.0°F22.8°C 56.9°F13.8°C 57% 6.0 mph W9.7 kmh W 13.6 mph21.9 kmh 29.70 in1005.8 mb 0.00 in0.0 mm 0.00 in0.0 mm 0.00 in0.0 mm
08:00 PM 72.7°F22.6°C 57.1°F13.9°C 58% 6.0 mph W9.7 kmh W 11.4 mph18.3 kmh 29.71 in1006.1 mb 0.00 in0.0 mm 0.00 in0.0 mm 0.00 in0.0 mm
08:05 PM 72.1°F22.3°C 56.6°F13.7°C 58% 6.0 mph W9.7 kmh W 11.4 mph18.3 kmh 29.71 in1006.1 mb 0.00 in0.0 mm 0.00 in0.0 mm 0.00 in0.0 mm
08:10 PM 71.8°F22.1°C 56.7°F13.7°C 59% 5.4 mph W8.7 kmh W 11.4 mph18.3 kmh 29.71 in1006.1 mb 0.00 in0.0 mm 0.00 in0.0 mm 0.00 in0.0 mm
08:15 PM 71.6°F22.0°C 56.5°F13.6°C 59% 5.4 mph W8.7 kmh W 10.7 mph17.2 kmh 29.71 in1006.1 mb 0.00 in0.0 mm 0.00 in0.0 mm 0.00 in0.0 mm
08:20 PM 71.2°F21.8°C 56.7°F13.7°C 60% 3.8 mph W6.1 kmh W 11.4 mph18.3 kmh 29.72 in1006.4 mb 0.00 in0.0 mm 0.00 in0.0 mm 0.00 in0.0 mm
08:25 PM 70.9°F21.6°C 56.3°F13.5°C 60% 6.9 mph W11.1 kmh W 11.4 mph18.3 kmh 29.72 in1006.4 mb 0.00 in0.0 mm 0.00 in0.0 mm 0.00 in0.0 mm
08:30 PM 70.7°F21.5°C 56.6°F13.7°C 61% 8.3 mph W13.4 kmh W 12.1 mph19.5 kmh 29.73 in1006.8 mb 0.00 in0.0 mm 0.00 in0.0 mm 0.00 in0.0 mm
08:35 PM 70.3°F21.3°C 56.3°F13.5°C 61% 5.4 mph W8.7 kmh W 12.1 mph19.5 kmh 29.72 in1006.4 mb 0.00 in0.0 mm 0.00 in0.0 mm 0.00 in0.0 mm
08:40 PM 70.2°F21.2°C 56.1°F13.4°C 61% 5.4 mph W8.7 kmh W 11.4 mph18.3 kmh 29.72 in1006.4 mb 0.00 in0.0 mm 0.00 in0.0 mm 0.00 in0.0 mm
08:45 PM 69.8°F21.0°C 56.2°F13.4°C 62% 6.0 mph W9.7 kmh W 9.8 mph15.8 kmh 29.73 in1006.8 mb 0.00 in0.0 mm 0.00 in0.0 mm 0.00 in0.0 mm
08:50 PM 69.6°F20.9°C 56.0°F13.3°C 62% 7.6 mph W12.2 kmh W 11.4 mph18.3 kmh 29.73 in1006.8 mb 0.00 in0.0 mm 0.00 in0.0 mm 0.00 in0.0 mm
08:55 PM 69.4°F20.8°C 55.9°F13.3°C 62% 6.0 mph W9.7 kmh W 11.4 mph18.3 kmh 29.72 in1006.4 mb 0.00 in0.0 mm 0.00 in0.0 mm 0.00 in0.0 mm
09:00 PM 69.3°F20.7°C 55.7°F13.2°C 62% 3.8 mph W6.1 kmh W 11.4 mph18.3 kmh 29.73 in1006.8 mb 0.00 in0.0 mm 0.00 in0.0 mm 0.00 in0.0 mm
09:05 PM 69.1°F20.6°C 55.5°F13.1°C 62% 7.6 mph W12.2 kmh W 13.0 mph20.9 kmh 29.73 in1006.8 mb 0.00 in0.0 mm 0.00 in0.0 mm 0.00 in0.0 mm
09:10 PM 69.1°F20.6°C 56.0°F13.3°C 63% 4.5 mph W7.2 kmh W 13.0 mph20.9 kmh 29.73 in1006.8 mb 0.00 in0.0 mm 0.00 in0.0 mm 0.00 in0.0 mm
09:15 PM 68.7°F20.4°C 55.6°F13.1°C 63% 4.5 mph W7.2 kmh W 9.8 mph15.8 kmh 29.73 in1006.8 mb 0.00 in0.0 mm 0.00 in0.0 mm 0.00 in0.0 mm
09:20 PM 68.7°F20.4°C 55.6°F13.1°C 63% 3.8 mph W6.1 kmh W 9.2 mph14.8 kmh 29.73 in1006.8 mb 0.00 in0.0 mm 0.00 in0.0 mm 0.00 in0.0 mm
09:25 PM 68.5°F20.3°C 55.5°F13.1°C 63% 3.8 mph W6.1 kmh W 8.3 mph13.4 kmh 29.74 in1007.1 mb 0.00 in0.0 mm 0.00 in0.0 mm 0.00 in0.0 mm
09:30 PM 68.4°F20.2°C 55.3°F12.9°C 63% 4.5 mph W7.2 kmh W 8.3 mph13.4 kmh 29.74 in1007.1 mb 0.00 in0.0 mm 0.00 in0.0 mm 0.00 in0.0 mm
09:35 PM 68.4°F20.2°C 55.3°F12.9°C 63% 4.5 mph W7.2 kmh W 7.6 mph12.2 kmh 29.74 in1007.1 mb 0.00 in0.0 mm 0.00 in0.0 mm 0.00 in0.0 mm
09:40 PM 68.0°F20.0°C 55.0°F12.8°C 63% 6.0 mph W9.7 kmh W 7.6 mph12.2 kmh 29.74 in1007.1 mb 0.00 in0.0 mm 0.00 in0.0 mm 0.00 in0.0 mm
09:45 PM 68.0°F20.0°C 55.4°F13.0°C 64% 4.5 mph W7.2 kmh W 8.3 mph13.4 kmh 29.74 in1007.1 mb 0.00 in0.0 mm 0.00 in0.0 mm 0.00 in0.0 mm
09:50 PM 67.8°F19.9°C 55.2°F12.9°C 64% 3.8 mph W6.1 kmh W 8.3 mph13.4 kmh 29.75 in1007.5 mb 0.00 in0.0 mm 0.00 in0.0 mm 0.00 in0.0 mm
09:55 PM 67.6°F19.8°C 55.0°F12.8°C 64% 5.4 mph W8.7 kmh W 7.6 mph12.2 kmh 29.75 in1007.5 mb 0.00 in0.0 mm 0.00 in0.0 mm 0.00 in0.0 mm
10:00 PM 67.6°F19.8°C 55.0°F12.8°C 64% 3.8 mph W6.1 kmh W 7.6 mph12.2 kmh 29.75 in1007.5 mb 0.00 in0.0 mm 0.00 in0.0 mm 0.00 in0.0 mm
10:05 PM 67.3°F19.6°C 54.7°F12.6°C 64% 4.5 mph W7.2 kmh W 8.3 mph13.4 kmh 29.75 in1007.5 mb 0.00 in0.0 mm 0.00 in0.0 mm 0.00 in0.0 mm
10:10 PM 67.3°F19.6°C 54.7°F12.6°C 64% 4.5 mph W7.2 kmh W 8.3 mph13.4 kmh 29.75 in1007.5 mb 0.00 in0.0 mm 0.00 in0.0 mm 0.00 in0.0 mm
10:15 PM 67.1°F19.5°C 54.5°F12.5°C 64% 2.2 mph W3.5 kmh W 7.6 mph12.2 kmh 29.75 in1007.5 mb 0.00 in0.0 mm 0.00 in0.0 mm 0.00 in0.0 mm
10:20 PM 66.9°F19.4°C 54.4°F12.4°C 64% 3.8 mph WNW6.1 kmh WNW 6.9 mph11.1 kmh 29.75 in1007.5 mb 0.00 in0.0 mm 0.00 in0.0 mm 0.00 in0.0 mm
10:25 PM 66.9°F19.4°C 54.4°F12.4°C 64% 4.5 mph WNW7.2 kmh WNW 6.9 mph11.1 kmh 29.75 in1007.5 mb 0.00 in0.0 mm 0.00 in0.0 mm 0.00 in0.0 mm
10:30 PM 66.7°F19.3°C 54.2°F12.3°C 64% 2.2 mph WNW3.5 kmh WNW 7.6 mph12.2 kmh 29.75 in1007.5 mb 0.00 in0.0 mm 0.00 in0.0 mm 0.00 in0.0 mm
10:35 PM 66.6°F19.2°C 54.0°F12.2°C 64% 4.5 mph WNW7.2 kmh WNW 7.6 mph12.2 kmh 29.75 in1007.5 mb 0.00 in0.0 mm 0.00 in0.0 mm 0.00 in0.0 mm
10:40 PM 66.4°F19.1°C 54.3°F12.4°C 65% 3.1 mph WNW5.0 kmh WNW 6.9 mph11.1 kmh 29.75 in1007.5 mb 0.00 in0.0 mm 0.00 in0.0 mm 0.00 in0.0 mm
10:45 PM 66.2°F19.0°C 54.1°F12.3°C 65% 3.1 mph WNW5.0 kmh WNW 6.0 mph9.7 kmh 29.75 in1007.5 mb 0.00 in0.0 mm 0.00 in0.0 mm 0.00 in0.0 mm
10:50 PM 66.2°F19.0°C 54.1°F12.3°C 65% 3.8 mph WNW6.1 kmh WNW 6.0 mph9.7 kmh 29.75 in1007.5 mb 0.00 in0.0 mm 0.00 in0.0 mm 0.00 in0.0 mm
10:55 PM 66.0°F18.9°C 53.9°F12.2°C 65% 3.1 mph W5.0 kmh W 6.0 mph9.7 kmh 29.76 in1007.8 mb 0.00 in0.0 mm 0.00 in0.0 mm 0.00 in0.0 mm
11:00 PM 65.8°F18.8°C 53.8°F12.1°C 65% 3.8 mph W6.1 kmh W 6.0 mph9.7 kmh 29.76 in1007.8 mb 0.00 in0.0 mm 0.00 in0.0 mm 0.00 in0.0 mm
11:05 PM 65.8°F18.8°C 53.8°F12.1°C 65% 2.2 mph W3.5 kmh W 6.0 mph9.7 kmh 29.76 in1007.8 mb 0.00 in0.0 mm 0.00 in0.0 mm 0.00 in0.0 mm
11:10 PM 65.7°F18.7°C 53.6°F12.0°C 65% 3.8 mph WNW6.1 kmh WNW 6.0 mph9.7 kmh 29.75 in1007.5 mb 0.00 in0.0 mm 0.00 in0.0 mm 0.00 in0.0 mm
11:15 PM 65.7°F18.7°C 53.6°F12.0°C 65% 3.1 mph WNW5.0 kmh WNW 6.0 mph9.7 kmh 29.75 in1007.5 mb 0.00 in0.0 mm 0.00 in0.0 mm 0.00 in0.0 mm
11:20 PM 65.5°F18.6°C 53.4°F11.9°C 65% 3.1 mph W5.0 kmh W 6.0 mph9.7 kmh 29.75 in1007.5 mb 0.00 in0.0 mm 0.00 in0.0 mm 0.00 in0.0 mm
11:25 PM 65.3°F18.5°C 53.3°F11.8°C 65% 1.6 mph W2.6 kmh W 5.4 mph8.7 kmh 29.75 in1007.5 mb 0.00 in0.0 mm 0.00 in0.0 mm 0.00 in0.0 mm
11:30 PM 65.1°F18.4°C 53.1°F11.7°C 65% 3.1 mph W5.0 kmh W 5.4 mph8.7 kmh 29.75 in1007.5 mb 0.00 in0.0 mm 0.00 in0.0 mm 0.00 in0.0 mm
11:35 PM 64.9°F18.3°C 52.9°F11.6°C 65% 2.2 mph WNW3.5 kmh WNW 4.5 mph7.2 kmh 29.75 in1007.5 mb 0.00 in0.0 mm 0.00 in0.0 mm 0.00 in0.0 mm
11:40 PM 64.8°F18.2°C 52.7°F11.5°C 65% 3.1 mph W5.0 kmh W 4.5 mph7.2 kmh 29.75 in1007.5 mb 0.00 in0.0 mm 0.00 in0.0 mm 0.00 in0.0 mm
11:45 PM 64.6°F18.1°C 52.6°F11.4°C 65% 2.2 mph W3.5 kmh W 4.5 mph7.2 kmh 29.75 in1007.5 mb 0.00 in0.0 mm 0.00 in0.0 mm 0.00 in0.0 mm
11:50 PM 64.6°F18.1°C 52.6°F11.4°C 65% 1.6 mph W2.6 kmh W 3.8 mph6.1 kmh 29.75 in1007.5 mb 0.00 in0.0 mm 0.00 in0.0 mm 0.00 in0.0 mm
11:55 PM 64.2°F17.9°C 52.2°F11.2°C 65% 0.7 mph W1.1 kmh W 3.1 mph5.0 kmh 29.75 in1007.5 mb 0.00 in0.0 mm 0.00 in0.0 mm 0.00 in0.0 mm